Time;durP1;ratioP1;P1;durP2;ratioP2;P2;SDS_P1;SDS_P2;PMS_P1;PMS_P2;Temp;Humidity;BMP_temperature;BMP_pressure;BME280_temperature;BME280_humidity;BME280_pressure;Samples;Min_cycle;Max_cycle;Signal;HPM_P1;HPM_P2
2023/05/27 00:00:08;;;;;;;3.47;2.65;;;;;;;23.15;42.40;96511.13;5033679;28;20018;-33
2023/05/27 00:02:34;;;;;;;5.97;2.42;;;;;;;23.19;41.85;96506.09;5033546;28;20526;-33
2023/05/27 00:04:59;;;;;;;3.67;2.55;;;;;;;23.13;41.61;96502.56;5033086;28;20029;-33
2023/05/27 00:07:25;;;;;;;3.10;2.47;;;;;;;23.14;42.12;96510.38;5036082;28;20028;-33
2023/05/27 00:09:50;;;;;;;4.65;2.85;;;;;;;23.09;41.77;96513.91;5037951;28;20033;-34
2023/05/27 00:12:16;;;;;;;7.38;3.10;;;;;;;23.14;42.13;96499.28;5033196;28;20100;-33
2023/05/27 00:14:42;;;;;;;4.18;2.67;;;;;;;23.37;41.86;96511.03;5036331;28;20037;-33
2023/05/27 00:17:09;;;;;;;5.55;2.90;;;;;;;22.99;42.10;96498.88;5043740;28;20062;-34
2023/05/27 00:19:35;;;;;;;4.78;2.60;;;;;;;23.38;41.59;96511.78;5044506;28;20025;-33
2023/05/27 00:22:00;;;;;;;4.72;2.80;;;;;;;23.23;42.14;96501.81;5044199;28;20037;-33
2023/05/27 00:24:26;;;;;;;4.32;2.70;;;;;;;23.33;41.69;96507.03;5044421;28;20116;-34
2023/05/27 00:26:51;;;;;;;4.15;2.67;;;;;;;23.02;42.32;96503.34;5037193;28;20082;-33
2023/05/27 00:29:17;;;;;;;4.68;2.50;;;;;;;23.20;41.60;96502.06;5036710;28;20026;-34
2023/05/27 00:31:43;;;;;;;3.55;2.20;;;;;;;23.23;41.60;96498.28;5037400;28;20021;-33
2023/05/27 00:34:08;;;;;;;3.03;2.35;;;;;;;23.23;41.90;96506.59;5041053;28;20039;-33
2023/05/27 00:36:35;;;;;;;3.83;2.70;;;;;;;23.25;41.97;96502.03;5039191;28;20032;-33
2023/05/27 00:39:01;;;;;;;4.22;2.72;;;;;;;23.19;42.23;96501.31;5043959;28;20384;-33
2023/05/27 00:41:26;;;;;;;4.13;3.15;;;;;;;23.14;42.24;96502.06;5044354;28;20029;-33
2023/05/27 00:43:52;;;;;;;5.00;2.95;;;;;;;23.10;42.09;96500.84;5037237;28;20554;-33
2023/05/27 00:46:18;;;;;;;5.97;3.15;;;;;;;23.10;42.71;96504.34;5036669;28;20100;-33
2023/05/27 00:48:45;;;;;;;4.45;2.95;;;;;;;23.07;42.40;96502.59;5036102;28;20441;-33
2023/05/27 00:51:11;;;;;;;3.63;2.80;;;;;;;23.11;42.35;96505.88;5036872;28;20491;-33
2023/05/27 00:53:43;;;;;;;5.55;2.67;;;;;;;23.13;42.52;96505.34;5049270;28;20052;-33
2023/05/27 00:56:18;;;;;;;5.40;2.70;;;;;;;22.95;42.52;96500.38;5038367;28;20048;-33
2023/05/27 00:58:43;;;;;;;3.10;2.80;;;;;;;23.09;42.98;96500.09;5040743;28;20052;-33
2023/05/27 01:01:09;;;;;;;4.88;2.72;;;;;;;23.00;42.76;96503.09;5042492;28;20049;-33
2023/05/27 01:03:35;;;;;;;4.25;2.95;;;;;;;23.16;42.51;96507.09;5036520;28;20120;-33
2023/05/27 01:06:07;;;;;;;3.88;2.50;;;;;;;23.06;42.42;96490.03;5035845;28;20039;-33
2023/05/27 01:08:58;;;;;;;5.10;3.13;;;;;;;22.99;42.38;96490.56;5029049;28;20017;-33
2023/05/27 01:11:31;;;;;;;4.75;3.28;;;;;;;23.17;42.09;96487.22;5050914;28;20275;-33
2023/05/27 01:14:01;;;;;;;5.47;3.25;;;;;;;23.17;42.21;96487.22;5043263;28;20096;-33
2023/05/27 01:16:28;;;;;;;6.13;3.45;;;;;;;23.14;42.73;96490.25;5041401;28;20036;-33
2023/05/27 01:18:56;;;;;;;6.43;3.22;;;;;;;22.90;42.43;96491.56;5036083;28;20017;-33
2023/05/27 01:21:24;;;;;;;4.13;2.80;;;;;;;23.15;42.26;96486.97;5036211;28;20021;-33
2023/05/27 01:23:51;;;;;;;4.40;3.17;;;;;;;23.11;41.95;96486.50;5035939;28;20061;-33
2023/05/27 01:26:17;;;;;;;3.75;2.88;;;;;;;22.99;42.80;96482.28;5042760;28;20029;-33
2023/05/27 01:28:43;;;;;;;6.05;3.42;;;;;;;23.05;42.51;96480.22;5039229;28;20530;-34
2023/05/27 01:31:48;;;;;;;4.82;3.25;;;;;;;23.12;42.57;96479.69;5041098;28;20021;-35
2023/05/27 01:34:20;;;;;;;4.70;2.95;;;;;;;23.02;42.07;96481.22;5035829;28;20051;-34
2023/05/27 01:36:53;;;;;;;4.60;2.95;;;;;;;23.13;42.44;96475.66;5035606;28;20032;-33
2023/05/27 01:39:19;;;;;;;4.50;3.15;;;;;;;23.13;42.87;96475.66;5035712;28;20083;-34
2023/05/27 01:41:46;;;;;;;5.07;3.15;;;;;;;23.06;42.38;96478.22;5036240;28;20025;-33
2023/05/27 01:44:15;;;;;;;5.63;3.38;;;;;;;23.05;42.70;96483.00;5042262;28;20025;-33
2023/05/27 01:46:41;;;;;;;5.85;3.17;;;;;;;23.12;42.65;96481.72;5042513;28;20053;-33
2023/05/27 01:49:07;;;;;;;3.35;2.70;;;;;;;23.09;41.96;96483.50;5035837;28;20433;-33
2023/05/27 01:51:32;;;;;;;4.85;3.17;;;;;;;23.01;42.50;96471.44;5031329;28;20029;-34
2023/05/27 01:53:57;;;;;;;5.05;2.78;;;;;;;23.10;42.66;96471.16;5042686;28;20041;-33
2023/05/27 01:56:23;;;;;;;7.18;3.58;;;;;;;22.88;42.65;96460.16;5035471;28;20040;-33
2023/05/27 01:58:48;;;;;;;5.47;3.97;;;;;;;23.11;42.26;96463.63;5042122;28;20372;-33
2023/05/27 02:01:14;;;;;;;4.10;3.28;;;;;;;23.11;42.59;96455.31;5037724;28;20469;-33
2023/05/27 02:03:40;;;;;;;4.05;3.10;;;;;;;22.87;42.94;96458.69;5040574;28;20021;-34
2023/05/27 02:06:05;;;;;;;4.57;3.30;;;;;;;22.95;42.37;96459.66;5035067;28;20018;-33
2023/05/27 02:08:31;;;;;;;4.03;3.40;;;;;;;22.94;42.89;96458.13;5027747;28;20048;-34
2023/05/27 02:10:56;;;;;;;4.90;3.42;;;;;;;23.01;42.93;96456.84;5041866;28;20017;-34
2023/05/27 02:13:22;;;;;;;4.55;3.60;;;;;;;22.90;42.87;96457.63;5036123;28;20112;-33
2023/05/27 02:15:47;;;;;;;5.30;2.88;;;;;;;22.91;42.90;96456.38;5042099;28;20079;-33
2023/05/27 02:18:12;;;;;;;5.05;3.78;;;;;;;23.11;42.73;96456.06;5041814;28;20537;-34
2023/05/27 02:20:38;;;;;;;4.03;2.83;;;;;;;23.01;42.82;96452.06;5035431;28;20484;-34
2023/05/27 02:23:06;;;;;;;4.93;3.00;;;;;;;22.94;43.18;96460.91;5034931;28;20021;-33
2023/05/27 02:25:32;;;;;;;4.97;3.10;;;;;;;22.89;42.98;96450.59;5034834;28;20477;-33
2023/05/27 02:27:57;;;;;;;6.38;2.92;;;;;;;22.90;43.08;96450.09;5034863;28;20124;-34
2023/05/27 02:30:23;;;;;;;3.97;2.92;;;;;;;22.98;43.30;96463.41;5041868;28;20032;-33
2023/05/27 02:32:48;;;;;;;5.18;3.42;;;;;;;22.80;42.58;96454.41;5042304;28;20024;-33
2023/05/27 02:35:15;;;;;;;4.63;3.50;;;;;;;22.95;42.78;96456.88;5034713;28;20469;-33
2023/05/27 02:37:40;;;;;;;5.18;3.30;;;;;;;22.92;42.48;96457.88;5034405;28;20469;-33
2023/05/27 02:40:08;;;;;;;3.50;2.83;;;;;;;22.98;42.63;96466.19;5034763;28;20096;-33
2023/05/27 02:42:33;;;;;;;4.70;3.25;;;;;;;23.03;42.62;96460.63;5034655;28;20029;-33
2023/05/27 02:44:59;;;;;;;4.38;3.20;;;;;;;22.99;42.91;96462.16;5034808;28;20025;-33
2023/05/27 02:47:24;;;;;;;3.92;3.17;;;;;;;22.91;42.82;96464.69;5039606;28;20017;-33
2023/05/27 02:49:49;;;;;;;4.32;3.65;;;;;;;22.79;43.10;96457.69;5036466;28;20017;-33
2023/05/27 02:52:15;;;;;;;4.30;3.10;;;;;;;22.90;42.57;96468.69;5041774;28;20021;-34
2023/05/27 02:54:40;;;;;;;4.57;3.40;;;;;;;22.91;43.10;96464.69;5033670;28;20398;-34
2023/05/27 02:57:06;;;;;;;4.72;3.40;;;;;;;22.93;43.21;96462.91;5034331;28;20389;-34
2023/05/27 02:59:32;;;;;;;4.75;3.20;;;;;;;22.71;43.20;96459.44;5034255;28;20017;-33
2023/05/27 03:01:57;;;;;;;7.32;3.55;;;;;;;22.92;43.52;96457.88;5033494;28;20377;-35
2023/05/27 03:04:23;;;;;;;9.90;3.70;;;;;;;23.09;43.22;96457.84;5041592;28;20100;-33
2023/05/27 03:06:48;;;;;;;4.93;3.10;;;;;;;22.95;42.93;96461.66;5039537;28;20015;-33
2023/05/27 03:09:14;;;;;;;5.82;3.50;;;;;;;22.99;42.99;96464.91;5035802;28;20017;-33
2023/05/27 03:11:40;;;;;;;6.05;3.00;;;;;;;22.93;43.05;96459.41;5034220;28;20023;-33
2023/05/27 03:14:05;;;;;;;5.05;3.90;;;;;;;23.04;43.53;96461.38;5034054;28;20097;-33
2023/05/27 03:16:31;;;;;;;6.18;3.75;;;;;;;22.81;43.37;96464.22;5040515;28;20025;-34
2023/05/27 03:18:56;;;;;;;6.75;3.92;;;;;;;22.97;43.24;96457.13;5033422;28;20013;-34
2023/05/27 03:21:22;;;;;;;6.72;3.75;;;;;;;22.97;43.55;96459.91;5041221;28;20029;-33
2023/05/27 03:23:47;;;;;;;6.72;3.67;;;;;;;22.93;43.52;96457.38;5040834;28;20424;-35
2023/05/27 03:26:13;;;;;;;6.72;3.70;;;;;;;22.88;43.96;96460.91;5033959;28;20041;-35
2023/05/27 03:28:38;;;;;;;5.25;3.30;;;;;;;22.75;43.92;96463.44;5034325;28;20021;-33
2023/05/27 03:31:05;;;;;;;4.70;3.60;;;;;;;22.83;43.72;96464.47;5033827;28;20021;-33
2023/05/27 03:33:30;;;;;;;5.82;3.28;;;;;;;22.82;43.80;96462.94;5031946;28;20067;-34
2023/05/27 03:35:56;;;;;;;5.38;3.55;;;;;;;22.73;43.99;96462.44;5036270;28;20025;-35
2023/05/27 03:38:21;;;;;;;6.25;3.90;;;;;;;22.75;43.93;96468.22;5037799;28;20037;-33
2023/05/27 03:40:47;;;;;;;5.35;3.38;;;;;;;22.70;44.06;96468.97;5041124;28;20032;-33
2023/05/27 03:43:12;;;;;;;5.28;3.63;;;;;;;22.58;44.47;96474.53;5033651;28;20021;-33
2023/05/27 03:45:38;;;;;;;4.60;3.80;;;;;;;22.53;44.56;96461.47;5033639;28;20132;-33
2023/05/27 03:48:03;;;;;;;4.57;3.90;;;;;;;22.73;44.15;96470.75;5033364;28;20454;-33
2023/05/27 03:50:29;;;;;;;4.15;3.60;;;;;;;22.77;44.16;96465.72;5037747;28;20036;-33
2023/05/27 03:52:54;;;;;;;5.10;3.65;;;;;;;22.52;44.44;96471.00;5044378;28;20028;-35
2023/05/27 03:55:23;;;;;;;7.57;3.75;;;;;;;22.36;44.80;96463.50;5040780;28;20032;-33
2023/05/27 03:57:48;;;;;;;5.78;3.42;;;;;;;22.68;44.16;96468.72;5040606;28;20446;-34
2023/05/27 04:00:16;;;;;;;5.47;3.80;;;;;;;22.71;44.24;96462.19;5037343;28;20033;-34
2023/05/27 04:02:42;;;;;;;6.13;3.97;;;;;;;22.58;44.57;96459.97;5037573;28;20028;-33
2023/05/27 04:05:08;;;;;;;4.78;3.20;;;;;;;22.76;44.27;96455.91;5037458;28;20061;-33
2023/05/27 04:07:34;;;;;;;5.50;3.33;;;;;;;22.66;44.60;96460.19;5037593;28;20049;-33
2023/05/27 04:09:59;;;;;;;8.65;3.80;;;;;;;22.85;43.57;96456.41;5044730;28;20021;-34
2023/05/27 04:12:25;;;;;;;5.80;3.42;;;;;;;22.69;43.97;96457.16;5050554;28;20032;-33
2023/05/27 04:14:50;;;;;;;4.85;3.40;;;;;;;22.70;44.67;96460.69;5037352;28;20461;-34
2023/05/27 04:17:17;;;;;;;5.22;3.40;;;;;;;22.74;44.25;96461.19;5043496;28;20087;-33
2023/05/27 04:19:43;;;;;;;6.90;3.55;;;;;;;22.71;44.13;96457.44;5030121;28;20021;-33
2023/05/27 04:22:08;;;;;;;4.35;3.30;;;;;;;22.47;44.62;96451.69;5043455;28;20087;-34
2023/05/27 04:24:33;;;;;;;4.82;3.63;;;;;;;22.71;44.46;96459.44;5039117;28;20021;-33
2023/05/27 04:26:59;;;;;;;5.00;3.67;;;;;;;22.78;44.11;96461.69;5043083;28;20507;-33
2023/05/27 04:29:25;;;;;;;5.57;3.58;;;;;;;22.72;44.54;96458.19;5036555;28;20477;-33
2023/05/27 04:31:50;;;;;;;6.85;3.53;;;;;;;22.72;44.29;96460.94;5037369;28;20021;-33
2023/05/27 04:34:16;;;;;;;5.20;3.45;;;;;;;22.75;44.05;96457.91;5042282;28;20536;-33
2023/05/27 04:36:42;;;;;;;7.63;3.28;;;;;;;22.78;44.18;96458.94;5038093;28;20047;-34
2023/05/27 04:39:08;;;;;;;7.93;3.70;;;;;;;22.72;43.97;96467.22;5044102;28;20082;-33
2023/05/27 04:41:33;;;;;;;4.63;3.80;;;;;;;22.48;44.96;96458.72;5044061;28;20423;-33
2023/05/27 04:44:00;;;;;;;4.78;3.70;;;;;;;22.69;44.88;96464.72;5037162;28;20940;-34
2023/05/27 04:46:26;;;;;;;4.72;3.58;;;;;;;22.73;44.54;96462.44;5036676;28;20021;-33
2023/05/27 04:48:55;;;;;;;5.15;3.70;;;;;;;22.65;44.42;96464.97;5036787;28;20094;-33
2023/05/27 04:51:21;;;;;;;5.53;3.80;;;;;;;22.70;44.47;96466.22;5037016;28;20018;-33
2023/05/27 04:53:49;;;;;;;5.72;3.83;;;;;;;22.67;44.81;96467.22;5035800;28;20060;-33
2023/05/27 04:56:17;;;;;;;7.05;3.90;;;;;;;22.62;44.89;96470.78;5043174;28;20021;-33
2023/05/27 04:58:46;;;;;;;5.88;3.90;;;;;;;22.64;44.84;96465.47;5043188;28;20021;-33
2023/05/27 05:01:17;;;;;;;5.95;3.80;;;;;;;22.85;44.73;96466.72;5036110;28;20107;-33
2023/05/27 05:04:12;;;;;;;5.40;4.03;;;;;;;22.57;44.88;96478.56;5036518;28;20017;-33
2023/05/27 05:06:39;;;;;;;6.35;3.65;;;;;;;22.66;44.81;96463.72;5030187;28;20469;-33
2023/05/27 05:09:05;;;;;;;7.13;4.75;;;;;;;22.75;44.63;96471.00;5036095;28;20029;-33
2023/05/27 05:11:31;;;;;;;8.90;4.60;;;;;;;22.76;44.82;96472.50;5036241;28;20079;-34
2023/05/27 05:13:57;;;;;;;5.70;4.32;;;;;;;22.76;44.80;96469.75;5041923;28;20036;-33
2023/05/27 05:16:22;;;;;;;6.30;3.90;;;;;;;22.63;45.57;96472.25;5043998;28;20017;-33
2023/05/27 05:18:47;;;;;;;5.65;4.03;;;;;;;22.70;44.78;96466.97;5036141;28;20440;-33
2023/05/27 05:21:13;;;;;;;7.95;4.25;;;;;;;22.79;44.94;96460.44;5036263;28;20363;-33
2023/05/27 05:23:39;;;;;;;6.00;4.78;;;;;;;22.77;45.00;96469.25;5035848;28;20469;-33
2023/05/27 05:26:06;;;;;;;8.32;4.93;;;;;;;22.82;45.02;96481.56;5035975;28;20026;-35
2023/05/27 05:28:33;;;;;;;5.40;4.32;;;;;;;22.78;44.83;96479.03;5043234;28;20045;-33
2023/05/27 05:30:58;;;;;;;9.02;5.05;;;;;;;22.88;44.98;96473.97;5043318;28;20025;-33
2023/05/27 05:33:23;;;;;;;6.25;3.97;;;;;;;22.90;44.80;96480.50;5036031;28;20487;-33
2023/05/27 05:35:49;;;;;;;5.70;4.32;;;;;;;22.92;45.04;96488.31;5042157;28;20026;-34
2023/05/27 05:38:17;;;;;;;7.22;3.70;;;;;;;22.99;45.17;96475.97;5035743;28;20485;-33
2023/05/27 05:40:48;;;;;;;6.57;3.78;;;;;;;22.96;45.24;96488.06;5043005;28;20509;-35
2023/05/27 05:43:14;;;;;;;10.98;3.75;;;;;;;22.98;45.42;96483.53;5038257;28;20076;-33
2023/05/27 05:45:39;;;;;;;8.20;3.92;;;;;;;22.85;45.41;96494.38;5038101;28;20155;-33
2023/05/27 05:48:04;;;;;;;5.25;3.55;;;;;;;22.78;45.75;96489.34;5036261;28;20009;-33
2023/05/27 05:50:30;;;;;;;5.72;3.92;;;;;;;22.80;45.51;96484.81;5035383;28;20017;-33
2023/05/27 05:52:56;;;;;;;4.72;3.42;;;;;;;22.83;45.61;96492.09;5033369;28;20339;-33
2023/05/27 05:55:21;;;;;;;5.68;3.47;;;;;;;22.91;45.49;96490.31;5035247;28;20021;-33
2023/05/27 05:57:47;;;;;;;7.03;4.18;;;;;;;22.86;45.55;96498.66;5042636;28;20021;-33
2023/05/27 06:00:13;;;;;;;6.00;3.90;;;;;;;23.08;45.49;96484.00;5042734;28;20044;-33
2023/05/27 06:02:38;;;;;;;6.45;3.50;;;;;;;22.91;45.72;96495.09;5035245;28;20048;-33
2023/05/27 06:05:04;;;;;;;5.07;3.63;;;;;;;22.90;45.98;96499.13;5035507;28;20029;-33
2023/05/27 06:07:29;;;;;;;4.50;3.25;;;;;;;22.88;46.05;96499.63;5035363;28;20010;-33
2023/05/27 06:09:55;;;;;;;4.80;3.67;;;;;;;22.97;45.95;96500.63;5034982;28;20104;-33
2023/05/27 06:12:20;;;;;;;8.32;5.00;;;;;;;22.94;45.67;96496.84;5042268;28;20104;-33
2023/05/27 06:14:46;;;;;;;10.10;6.07;;;;;;;22.95;46.01;96501.13;5040953;28;20021;-33
2023/05/27 06:17:13;;;;;;;8.60;5.72;;;;;;;22.93;45.87;96496.09;5034621;28;20101;-33
2023/05/27 06:19:38;;;;;;;7.63;5.10;;;;;;;23.10;45.74;96498.81;5041858;28;20462;-34
2023/05/27 06:22:05;;;;;;;6.55;4.00;;;;;;;22.90;45.80;96504.66;5035053;28;20056;-33
2023/05/27 06:24:31;;;;;;;7.50;4.28;;;;;;;22.86;46.07;96510.47;5035156;28;20446;-33
2023/05/27 06:26:56;;;;;;;6.50;4.78;;;;;;;22.87;46.17;96511.22;5034841;28;20033;-34
2023/05/27 06:29:21;;;;;;;7.80;5.25;;;;;;;23.00;46.44;96514.19;5041845;28;20029;-35
2023/05/27 06:31:48;;;;;;;7.07;4.55;;;;;;;23.01;46.20;96514.94;5036820;28;20083;-33
2023/05/27 06:34:15;;;;;;;5.43;3.88;;;;;;;22.89;46.52;96516.97;5043879;28;20052;-33
2023/05/27 06:36:40;;;;;;;5.57;3.97;;;;;;;23.10;45.93;96509.88;5036217;28;20030;-33
2023/05/27 06:39:06;;;;;;;6.15;3.88;;;;;;;23.19;45.81;96511.63;5034602;28;20044;-33
2023/05/27 06:41:31;;;;;;;5.82;3.30;;;;;;;23.00;45.92;96508.63;5034442;28;20026;-34
2023/05/27 06:43:57;;;;;;;5.10;3.60;;;;;;;23.13;46.03;96513.63;5041699;28;20033;-33
2023/05/27 06:46:22;;;;;;;9.27;4.50;;;;;;;23.19;46.21;96517.16;5046043;28;20036;-33
2023/05/27 06:48:47;;;;;;;6.07;3.88;;;;;;;23.15;45.95;96517.41;5043801;28;20041;-33
2023/05/27 06:51:14;;;;;;;5.15;3.38;;;;;;;23.21;45.86;96525.69;5034481;28;20022;-33
2023/05/27 06:53:40;;;;;;;5.20;3.90;;;;;;;23.11;45.99;96521.72;5041297;28;20131;-33
2023/05/27 06:56:05;;;;;;;7.60;3.30;;;;;;;23.21;45.75;96522.94;5034608;28;20025;-34
2023/05/27 06:58:31;;;;;;;4.20;3.45;;;;;;;23.19;46.00;96526.19;5038985;28;20028;-33
2023/05/27 07:00:57;;;;;;;5.90;3.60;;;;;;;23.26;45.89;96522.91;5037065;28;20042;-33
2023/05/27 07:03:23;;;;;;;7.07;3.67;;;;;;;23.19;46.24;96531.75;5041978;28;20018;-33
2023/05/27 07:05:48;;;;;;;5.20;3.70;;;;;;;23.36;45.90;96525.41;5033936;28;20025;-33
2023/05/27 07:08:14;;;;;;;5.05;3.80;;;;;;;23.38;45.73;96522.84;5034040;28;20068;-35
2023/05/27 07:10:40;;;;;;;7.10;4.30;;;;;;;23.29;45.78;96521.88;5037968;28;20052;-34
2023/05/27 07:13:05;;;;;;;6.00;3.70;;;;;;;23.19;46.07;96526.19;5037236;28;20017;-33
2023/05/27 07:15:31;;;;;;;7.32;4.25;;;;;;;23.18;46.57;96526.72;5040714;28;20028;-33
2023/05/27 07:17:56;;;;;;;4.38;3.33;;;;;;;23.40;45.77;96528.63;5037660;28;20021;-34
2023/05/27 07:20:23;;;;;;;7.88;3.63;;;;;;;23.46;45.73;96523.84;5034872;28;20033;-33
2023/05/27 07:22:48;;;;;;;6.68;3.88;;;;;;;23.27;46.36;96534.72;5033568;28;20029;-33
2023/05/27 07:25:14;;;;;;;8.18;3.40;;;;;;;23.33;46.39;96531.94;5033794;28;20029;-34
2023/05/27 07:27:39;;;;;;;5.30;4.03;;;;;;;23.29;46.42;96537.72;5034279;28;20155;-33
2023/05/27 07:30:05;;;;;;;5.72;3.50;;;;;;;23.31;46.64;96535.22;5033950;28;20102;-33
2023/05/27 07:32:31;;;;;;;5.05;3.60;;;;;;;23.44;46.66;96537.44;5040890;28;20032;-33
2023/05/27 07:34:57;;;;;;;4.55;3.85;;;;;;;23.26;47.24;96535.97;5024890;28;20022;-35
2023/05/27 07:37:23;;;;;;;4.30;3.63;;;;;;;23.36;46.85;96530.94;5033783;28;20450;-33
2023/05/27 07:39:50;;;;;;;5.22;3.30;;;;;;;23.39;46.68;96527.13;5033040;28;20029;-33
2023/05/27 07:42:16;;;;;;;5.03;3.88;;;;;;;23.39;46.83;96538.94;5032509;28;20480;-33
2023/05/27 07:44:42;;;;;;;5.50;4.25;;;;;;;23.51;46.82;96528.63;5032119;28;20068;-35
2023/05/27 07:47:08;;;;;;;6.47;3.92;;;;;;;23.35;47.03;96529.44;5035574;28;20476;-33
2023/05/27 07:49:34;;;;;;;5.95;3.97;;;;;;;23.34;47.40;96519.63;5038155;28;20025;-34
2023/05/27 07:51:59;;;;;;;4.43;3.47;;;;;;;23.43;47.19;96528.38;5041021;28;20025;-33
2023/05/27 07:54:26;;;;;;;3.90;3.30;;;;;;;23.44;46.85;96537.44;5033772;28;20064;-33
2023/05/27 07:56:52;;;;;;;5.20;4.10;;;;;;;23.31;47.23;96524.16;5033378;28;20108;-33
2023/05/27 07:59:17;;;;;;;6.25;3.70;;;;;;;23.44;47.24;96531.91;5037186;28;20108;-33
2023/05/27 08:01:42;;;;;;;4.03;3.50;;;;;;;23.41;47.39;96539.19;5033521;28;20076;-33
2023/05/27 08:04:08;;;;;;;5.30;3.65;;;;;;;23.55;47.02;96537.41;5038940;28;20040;-35
2023/05/27 08:06:33;;;;;;;6.43;3.42;;;;;;;23.41;46.94;96533.66;5036980;28;20025;-34
2023/05/27 08:08:59;;;;;;;7.50;3.72;;;;;;;23.36;47.40;96537.22;5036797;28;20029;-33
2023/05/27 08:11:25;;;;;;;5.40;3.60;;;;;;;23.32;47.66;96528.44;5040687;28;20040;-33
2023/05/27 08:13:51;;;;;;;6.07;4.20;;;;;;;23.48;47.29;96529.63;5040160;28;20358;-33
2023/05/27 08:16:16;;;;;;;6.55;4.03;;;;;;;23.44;47.42;96537.44;5040184;28;20032;-34
2023/05/27 08:18:41;;;;;;;5.53;3.45;;;;;;;23.44;47.60;96531.91;5033390;28;20023;-33
2023/05/27 08:21:07;;;;;;;6.97;4.25;;;;;;;23.42;47.99;96528.88;5040436;28;20028;-35
2023/05/27 08:23:32;;;;;;;9.30;4.15;;;;;;;23.47;47.66;96528.13;5040027;28;20025;-33
2023/05/27 08:25:58;;;;;;;6.55;4.47;;;;;;;23.44;47.98;96529.13;5033336;28;20026;-34
2023/05/27 08:28:23;;;;;;;6.40;4.03;;;;;;;23.44;48.19;96526.38;5033050;28;20041;-34
2023/05/27 08:30:48;;;;;;;4.78;3.75;;;;;;;23.49;48.12;96515.25;5040265;28;20030;-33
2023/05/27 08:33:14;;;;;;;7.82;4.38;;;;;;;23.50;48.09;96524.31;5033522;28;20037;-33
2023/05/27 08:35:40;;;;;;;5.95;3.70;;;;;;;23.55;47.95;96518.78;5043738;28;20033;-33
2023/05/27 08:38:06;;;;;;;4.88;3.58;;;;;;;23.48;48.14;96524.09;5043299;28;20075;-33
2023/05/27 08:40:31;;;;;;;9.75;5.40;;;;;;;23.49;48.25;96528.38;5043897;28;20362;-33
2023/05/27 08:42:57;;;;;;;8.80;4.65;;;;;;;23.54;48.14;96522.81;5037115;28;20104;-33
2023/05/27 08:45:22;;;;;;;5.20;3.90;;;;;;;23.60;47.65;96522.81;5036624;28;20032;-33
2023/05/27 08:47:49;;;;;;;6.22;3.45;;;;;;;23.58;47.46;96531.63;5036881;28;20030;-33
2023/05/27 08:50:15;;;;;;;5.95;3.60;;;;;;;23.55;47.76;96529.09;5036479;28;20029;-33
2023/05/27 08:52:50;;;;;;;4.88;3.55;;;;;;;23.54;47.54;96530.38;5036223;28;20382;-33
2023/05/27 08:55:19;;;;;;;6.82;3.70;;;;;;;23.67;47.43;96525.03;5045329;28;20383;-33
2023/05/27 08:57:54;;;;;;;5.68;3.90;;;;;;;23.67;46.95;96533.31;5046166;28;20059;-33
2023/05/27 09:00:20;;;;;;;4.65;3.38;;;;;;;23.63;47.20;96530.06;5036582;28;20373;-33
2023/05/27 09:02:46;;;;;;;5.63;3.45;;;;;;;23.67;47.37;96532.56;5036413;28;20017;-34
2023/05/27 09:05:13;;;;;;;5.53;3.55;;;;;;;23.57;47.51;96537.66;5043819;28;20475;-35
2023/05/27 09:07:38;;;;;;;6.80;3.35;;;;;;;23.58;47.64;96526.09;5035987;28;20032;-34
2023/05/27 09:10:06;;;;;;;16.40;4.85;;;;;;;23.66;47.40;96525.53;5041776;28;20013;-34
2023/05/27 09:12:32;;;;;;;9.82;3.60;;;;;;;23.47;48.07;96515.03;5050462;28;20420;-33
2023/05/27 09:14:58;;;;;;;9.25;3.50;;;;;;;23.66;47.75;96520.75;5035620;28;20096;-33
2023/05/27 09:17:24;;;;;;;9.95;3.83;;;;;;;23.67;47.89;96515.97;5042872;28;20025;-33
2023/05/27 09:19:53;;;;;;;7.63;3.72;;;;;;;23.69;47.19;96516.97;5036116;28;20116;-33
2023/05/27 09:22:40;;;;;;;16.98;3.97;;;;;;;23.68;47.56;96521.00;5043187;28;20021;-33
2023/05/27 09:25:06;;;;;;;20.80;5.55;;;;;;;23.64;47.97;96524.03;5036549;28;20025;-33
2023/05/27 09:27:32;;;;;;;22.63;5.40;;;;;;;23.72;47.69;96513.19;5038052;28;20401;-33
2023/05/27 09:30:09;;;;;;;10.68;3.83;;;;;;;23.80;47.65;96508.59;5042767;28;20018;-34
2023/05/27 09:32:34;;;;;;;14.65;4.35;;;;;;;23.77;47.91;96506.84;5035989;28;20477;-34
2023/05/27 09:35:01;;;;;;;8.20;3.70;;;;;;;23.77;48.05;96509.59;5042806;28;20095;-33
2023/05/27 09:37:34;;;;;;;10.27;3.90;;;;;;;23.78;47.52;96491.72;5035609;28;20496;-33
2023/05/27 09:40:12;;;;;;;;;;;;;;;23.83;47.61;96501.28;5043219;28;20025;-33
2023/05/27 09:42:44;;;;;;;12.75;4.22;;;;;;;23.77;47.82;96495.75;5042353;28;20286;-33
2023/05/27 09:45:18;;;;;;;15.73;4.95;;;;;;;23.84;48.48;96511.09;5035402;28;20472;-33
2023/05/27 09:47:50;;;;;;;6.30;3.83;;;;;;;23.88;48.16;96509.53;5034951;28;20041;-34
2023/05/27 09:50:17;;;;;;;6.93;3.92;;;;;;;23.75;48.54;96503.81;5028604;28;20018;-33
2023/05/27 09:52:47;;;;;;;4.75;3.90;;;;;;;23.86;48.58;96509.28;5042288;28;20080;-33
2023/05/27 09:55:14;;;;;;;23.98;4.93;;;;;;;23.81;48.83;96510.09;5032686;28;20087;-33
2023/05/27 09:57:40;;;;;;;9.23;3.75;;;;;;;23.88;48.55;96500.47;5035513;28;20041;-33
2023/05/27 10:00:11;;;;;;;14.57;4.32;;;;;;;23.91;48.51;96502.97;5035880;28;20021;-33
2023/05/27 10:02:48;;;;;;;10.70;3.92;;;;;;;23.89;48.38;96496.44;5035412;28;20025;-33
2023/05/27 10:05:16;;;;;;;7.68;3.97;;;;;;;23.99;48.26;96501.16;5035556;28;20017;-33
2023/05/27 10:07:45;;;;;;;11.50;4.10;;;;;;;23.96;48.50;96501.44;5035446;28;20009;-33
2023/05/27 10:10:14;;;;;;;12.05;4.18;;;;;;;23.94;48.59;96499.19;5034742;28;20032;-34
2023/05/27 10:12:41;;;;;;;22.05;4.55;;;;;;;23.92;48.42;96498.19;5041743;28;20029;-33
2023/05/27 10:15:07;;;;;;;9.88;3.67;;;;;;;24.00;48.15;96499.13;5042280;28;20096;-33
2023/05/27 10:17:54;;;;;;;12.05;4.18;;;;;;;24.08;47.27;96496.59;5042155;28;20017;-33
2023/05/27 10:20:42;;;;;;;7.88;4.40;;;;;;;24.03;47.37;96494.59;5035339;28;20017;-33
2023/05/27 10:23:21;;;;;;;13.63;4.00;;;;;;;24.09;47.26;96500.84;5030931;28;20132;-33
2023/05/27 10:25:48;;;;;;;12.25;3.88;;;;;;;24.03;47.37;96498.13;5042514;28;20079;-33
2023/05/27 10:28:31;;;;;;;8.55;4.00;;;;;;;24.06;47.40;96499.13;5041929;28;20429;-33
2023/05/27 10:31:28;;;;;;;6.60;3.63;;;;;;;24.12;47.37;96485.94;5035225;28;20028;-33
2023/05/27 10:33:57;;;;;;;8.85;3.58;;;;;;;24.11;47.31;96490.03;5043597;28;20029;-33
2023/05/27 10:36:25;;;;;;;10.98;3.67;;;;;;;24.20;47.84;96486.91;5038822;28;20025;-34
2023/05/27 10:39:12;;;;;;;5.75;3.67;;;;;;;24.17;48.22;96490.72;5034799;28;20087;-34
2023/05/27 10:41:59;;;;;;;6.90;3.45;;;;;;;24.11;47.36;96499.06;5034574;28;20052;-34
2023/05/27 10:44:28;;;;;;;5.20;3.40;;;;;;;24.10;46.84;96474.66;5036771;28;20048;-33
2023/05/27 10:47:02;;;;;;;6.85;3.53;;;;;;;24.12;47.31;96478.41;5041596;28;20070;-33
2023/05/27 10:49:35;;;;;;;5.38;4.10;;;;;;;24.23;47.31;96478.34;5034257;28;20033;-33
2023/05/27 10:52:06;;;;;;;6.82;3.83;;;;;;;24.17;47.49;96480.38;5035962;28;20029;-34
2023/05/27 10:54:35;;;;;;;5.65;3.85;;;;;;;24.18;47.61;96481.88;5039622;28;20085;-34
2023/05/27 10:57:02;;;;;;;5.53;3.70;;;;;;;24.19;48.00;96477.09;5033699;28;20017;-33
2023/05/27 10:59:54;;;;;;;9.50;3.78;;;;;;;24.24;47.92;96473.53;5044363;28;20029;-33
2023/05/27 11:02:23;;;;;;;8.07;3.63;;;;;;;24.28;48.09;96474.78;5036519;28;20079;-33
2023/05/27 11:04:49;;;;;;;8.15;3.78;;;;;;;24.27;47.69;96459.41;5037262;28;20377;-33
2023/05/27 11:07:18;;;;;;;4.82;3.30;;;;;;;24.38;47.05;96460.59;5034270;28;20025;-34
2023/05/27 11:09:52;;;;;;;6.30;3.67;;;;;;;24.31;47.24;96461.91;5034188;28;20021;-33
2023/05/27 11:12:19;;;;;;;5.13;3.25;;;;;;;24.27;47.12;96458.66;5033995;28;20488;-33
2023/05/27 11:14:53;;;;;;;5.53;3.70;;;;;;;24.26;47.25;96466.22;5034067;28;20061;-33
2023/05/27 11:17:19;;;;;;;6.65;4.03;;;;;;;24.48;47.24;96459.00;5034545;28;20047;-34
2023/05/27 11:19:45;;;;;;;4.63;3.70;;;;;;;24.36;46.86;96469.41;5040456;28;20075;-33
2023/05/27 11:22:13;;;;;;;5.63;3.45;;;;;;;24.41;46.89;96460.31;5033999;28;20039;-34
2023/05/27 11:24:39;;;;;;;6.00;3.92;;;;;;;24.33;47.26;96457.34;5033898;28;20029;-34
2023/05/27 11:27:23;;;;;;;5.72;3.83;;;;;;;24.40;47.14;96456.03;5034141;28;20019;-33
2023/05/27 11:29:52;;;;;;;5.93;4.05;;;;;;;24.38;47.21;96461.34;5041293;28;20028;-33
2023/05/27 11:32:19;;;;;;;6.65;3.90;;;;;;;24.39;47.42;96451.00;5039801;28;20444;-33
2023/05/27 11:34:45;;;;;;;5.97;3.85;;;;;;;24.49;47.46;96463.25;5043108;28;20028;-33